Oriental Clematis — 9VJT5 — position and weather

sailwx.info

Track history (hours):
 
Tides and Currents Weather Stations Pressure Air Temp Water Temp Dewpoint Dewpoint Depression Visibility Wind Speed Wind Dir Waves Ship Positions

Oriental Clematis

Last reported at 2017-Feb-18 19:33 UTC. Time now 2017-Feb-22 19:49 UTC.
Position N 21°02' E 110°51'.

Length 134 m; draft 5.1 m.

Type: Ship (hazmat cat C). MMSI: 565157000.

Date/timePositionNaut miles runAvg speedWind from/ knotsBaromVisibWave heightAir tempDewpointWater temp
2017-Feb-18 19:33N 21°02' E 110°51'1212.6
2017-Feb-18 18:34N 21°03' E 110°37'1111.0
2017-Feb-18 17:33N 21°06' E 110°26'5 0.1
2017-Feb-17 06:13N 21°11' E 110°24'0 0.2
2017-Feb-17 05:33N 21°11' E 110°24'5 5.0
2017-Feb-17 04:34N 21°06' E 110°26'6 6.2
2017-Feb-17 03:33N 21°05' E 110°33'1510.1
2017-Feb-17 02:06N 21°02' E 110°48'4 1.3
2017-Feb-16 23:28N 21°02' E 110°52'0 0.0
2017-Feb-16 22:31N 21°02' E 110°52'0 0.1
2017-Feb-16 21:25N 21°02' E 110°52'0 0.1
2017-Feb-16 20:31N 21°02' E 110°52'0 0.0
2017-Feb-16 19:22N 21°02' E 110°52'  
2017-Feb-10 11:09N 33°16' E 131°59'24 9.0
2017-Feb-10 08:30N 33°36' E 132°15'1010.6
2017-Feb-10 07:33N 33°43' E 132°23'1211.7
2017-Feb-10 06:33N 33°51' E 132°33'1312.8
2017-Feb-10 05:33N 33°60' E 132°44'  
Track history (hours):
 
Tides and Currents Weather Stations Pressure Air Temp Water Temp Dewpoint Dewpoint Depression Visibility Wind Speed Wind Dir Waves Ship Positions

Oriental Clematis

Last reported at 2017-Feb-18 19:33 UTC. Time now 2017-Feb-22 19:49 UTC.
Position N 21°02' E 110°51'.

Length 134 m; draft 5.1 m.

Type: Ship (hazmat cat C). MMSI: 565157000.

Date/timePositionNaut miles runAvg speedWind from/ knotsBaromVisibWave heightAir tempDewpointWater temp
2017-Feb-18 19:33N 21°02' E 110°51'1212.6
2017-Feb-18 18:34N 21°03' E 110°37'1111.0
2017-Feb-18 17:33N 21°06' E 110°26'5 0.1
2017-Feb-17 06:13N 21°11' E 110°24'0 0.2
2017-Feb-17 05:33N 21°11' E 110°24'5 5.0
2017-Feb-17 04:34N 21°06' E 110°26'6 6.2
2017-Feb-17 03:33N 21°05' E 110°33'1510.1
2017-Feb-17 02:06N 21°02' E 110°48'4 1.3
2017-Feb-16 23:28N 21°02' E 110°52'0 0.0
2017-Feb-16 22:31N 21°02' E 110°52'0 0.1
2017-Feb-16 21:25N 21°02' E 110°52'0 0.1
2017-Feb-16 20:31N 21°02' E 110°52'0 0.0
2017-Feb-16 19:22N 21°02' E 110°52'  
2017-Feb-10 11:09N 33°16' E 131°59'24 9.0
2017-Feb-10 08:30N 33°36' E 132°15'1010.6
2017-Feb-10 07:33N 33°43' E 132°23'1211.7
2017-Feb-10 06:33N 33°51' E 132°33'1312.8
2017-Feb-10 05:33N 33°60' E 132°44'  

Dump ship's entire track history